Time;durP1;ratioP1;P1;durP2;ratioP2;P2;SDS_P1;SDS_P2;PMS_P1;PMS_P2;Temp;Humidity;BMP_temperature;BMP_pressure;BME280_temperature;BME280_humidity;BME280_pressure;Samples;Min_cycle;Max_cycle;Signal;HPM_P1;HPM_P2
2021/12/22 00:01:48;;;;;;;36.35;19.85;;;;;;;;;;5067562;28;20597;-57
2021/12/22 00:04:15;;;;;;;37.53;20.85;;;;;;;;;;5068148;28;20028;-56
2021/12/22 00:06:41;;;;;;;35.95;19.33;;;;;;;;;;5067502;28;20074;-56
2021/12/22 00:09:08;;;;;;;35.38;19.25;;;;;;;;;;5064879;28;20047;-56
2021/12/22 00:11:34;;;;;;;34.67;18.73;;;;;;;;;;5047319;28;20458;-57
2021/12/22 00:14:00;;;;;;;36.20;18.48;;;;;;;;;;5054455;28;20020;-56
2021/12/22 00:16:26;;;;;;;31.70;17.95;;;;;;;;;;5067068;28;20678;-57
2021/12/22 00:18:52;;;;;;;36.75;18.92;;;;;;;;;;5067340;28;20021;-57
2021/12/22 00:21:20;;;;;;;34.72;18.65;;;;;;;;;;5066800;28;20036;-56
2021/12/22 00:23:46;;;;;;;33.60;18.17;;;;;;;;;;5066079;28;20025;-56
2021/12/22 00:26:14;;;;;;;34.40;17.90;;;;;;;;;;5067752;28;20035;-56
2021/12/22 00:28:41;;;;;;;35.40;19.42;;;;;;;;;;5066298;28;20029;-57
2021/12/22 00:31:12;;;;;;;35.15;19.20;;;;;;;;;;5066396;28;20039;-57
2021/12/22 00:33:46;;;;;;;36.97;19.55;;;;;;;;;;5066992;28;20800;-57
2021/12/22 00:36:12;;;;;;;33.83;19.52;;;;;;;;;;5066950;28;20404;-57
2021/12/22 00:38:38;;;;;;;38.72;21.08;;;;;;;;;;5066848;28;20060;-57
2021/12/22 00:41:05;;;;;;;38.38;20.45;;;;;;;;;;5065761;28;20657;-57
2021/12/22 00:43:31;;;;;;;40.38;21.33;;;;;;;;;;5066687;28;20130;-57
2021/12/22 00:45:57;;;;;;;40.47;21.00;;;;;;;;;;5066784;28;20032;-56
2021/12/22 00:48:23;;;;;;;41.85;22.20;;;;;;;;;;5065843;28;20025;-57
2021/12/22 00:50:49;;;;;;;40.08;21.40;;;;;;;;;;5065677;28;20423;-57
2021/12/22 00:53:16;;;;;;;40.40;21.45;;;;;;;;;;5067057;28;20024;-57
2021/12/22 00:55:42;;;;;;;42.35;21.88;;;;;;;;;;5066066;28;20017;-57
2021/12/22 00:58:08;;;;;;;38.63;20.50;;;;;;;;;;5066355;28;20025;-57
2021/12/22 01:00:35;;;;;;;39.80;20.00;;;;;;;;;;5065310;28;20492;-57
2021/12/22 01:03:01;;;;;;;36.83;20.60;;;;;;;;;;5066756;28;20119;-57
2021/12/22 01:05:28;;;;;;;40.10;21.23;;;;;;;;;;5065899;28;20028;-57
2021/12/22 01:07:54;;;;;;;38.53;20.35;;;;;;;;;;5065557;28;20112;-57
2021/12/22 01:10:23;;;;;;;42.70;21.65;;;;;;;;;;5065947;28;20032;-57
2021/12/22 01:12:51;;;;;;;39.58;20.70;;;;;;;;;;5065574;28;20024;-57
2021/12/22 01:15:17;;;;;;;37.20;19.00;;;;;;;;;;5066138;28;20020;-57
2021/12/22 01:17:47;;;;;;;35.75;19.25;;;;;;;;;;5067087;28;20025;-57
2021/12/22 01:20:31;;;;;;;40.60;18.92;;;;;;;;;;5066615;28;20056;-57
2021/12/22 01:23:02;;;;;;;34.60;18.30;;;;;;;;;;5066281;28;20062;-57
2021/12/22 01:25:29;;;;;;;34.63;18.20;;;;;;;;;;5065836;28;20039;-57
2021/12/22 01:27:55;;;;;;;36.30;18.70;;;;;;;;;;5065507;28;20074;-58
2021/12/22 01:30:23;;;;;;;37.03;19.73;;;;;;;;;;5065564;28;20107;-58
2021/12/22 01:32:50;;;;;;;36.75;19.27;;;;;;;;;;5064952;28;20107;-58
2021/12/22 01:35:17;;;;;;;39.40;19.83;;;;;;;;;;5066349;28;20108;-58
2021/12/22 01:37:44;;;;;;;40.42;19.67;;;;;;;;;;5066592;28;20116;-57
2021/12/22 01:40:11;;;;;;;34.03;17.75;;;;;;;;;;5066133;28;20035;-58
2021/12/22 01:42:37;;;;;;;33.38;18.15;;;;;;;;;;5065714;28;20029;-58
2021/12/22 01:50:35;;;;;;;35.90;18.88;;;;;;;;;;5065472;28;20043;-58
2021/12/22 01:53:05;;;;;;;33.33;18.35;;;;;;;;;;5066064;28;20020;-58
2021/12/22 01:55:35;;;;;;;37.40;20.73;;;;;;;;;;5065642;28;20032;-58
2021/12/22 01:58:02;;;;;;;35.97;19.95;;;;;;;;;;5065364;28;20048;-58
2021/12/22 02:00:28;;;;;;;35.33;18.67;;;;;;;;;;5064657;28;20040;-58
2021/12/22 02:02:55;;;;;;;38.53;20.00;;;;;;;;;;5067706;28;20029;-59
2021/12/22 02:05:22;;;;;;;37.70;20.08;;;;;;;;;;5068790;28;20032;-58
2021/12/22 02:07:49;;;;;;;37.25;18.65;;;;;;;;;;5069117;28;20020;-58
2021/12/22 02:10:36;;;;;;;40.72;19.98;;;;;;;;;;5068895;28;20059;-58
2021/12/22 02:13:04;;;;;;;36.30;19.17;;;;;;;;;;5069623;28;20028;-58
2021/12/22 02:15:34;;;;;;;34.72;18.13;;;;;;;;;;5068216;28;20086;-59
2021/12/22 02:18:02;;;;;;;36.05;19.10;;;;;;;;;;5051666;28;20029;-59
2021/12/22 02:20:29;;;;;;;38.35;19.05;;;;;;;;;;5068585;28;20028;-59
2021/12/22 02:22:55;;;;;;;36.25;19.40;;;;;;;;;;5069654;28;20032;-59
2021/12/22 02:25:31;;;;;;;37.58;18.38;;;;;;;;;;5067620;28;20066;-59
2021/12/22 02:27:57;;;;;;;36.67;18.80;;;;;;;;;;5069299;28;20028;-58
2021/12/22 02:30:27;;;;;;;38.83;19.50;;;;;;;;;;5067891;28;20036;-59
2021/12/22 02:35:28;;;;;;;40.90;20.17;;;;;;;;;;5068665;28;20028;-59
2021/12/22 02:37:54;;;;;;;;;;;;;;;;;;5069233;28;20027;-58
2021/12/22 02:40:25;;;;;;;38.80;19.17;;;;;;;;;;5067994;28;19916;-58
2021/12/22 02:42:54;;;;;;;41.05;19.83;;;;;;;;;;5068908;28;20024;-59
2021/12/22 02:45:21;;;;;;;40.03;20.70;;;;;;;;;;5068784;28;20024;-59
2021/12/22 02:47:48;;;;;;;38.22;20.05;;;;;;;;;;5069188;28;20032;-58
2021/12/22 02:50:16;;;;;;;39.85;19.98;;;;;;;;;;5068325;28;20020;-58
2021/12/22 02:55:11;;;;;;;39.35;20.23;;;;;;;;;;5068858;28;20365;-58
2021/12/22 02:57:43;;;;;;;40.13;20.50;;;;;;;;;;5068457;28;20448;-58
2021/12/22 03:03:04;;;;;;;36.55;18.55;;;;;;;;;;5068132;28;20086;-58
2021/12/22 03:05:30;;;;;;;36.05;18.45;;;;;;;;;;5068361;28;20052;-58
2021/12/22 03:07:56;;;;;;;32.10;17.30;;;;;;;;;;5068565;28;20042;-58
2021/12/22 03:10:23;;;;;;;32.35;17.30;;;;;;;;;;5067693;28;20419;-58
2021/12/22 03:12:56;;;;;;;33.78;17.25;;;;;;;;;;5068655;28;20025;-58
2021/12/22 03:15:22;;;;;;;35.45;16.83;;;;;;;;;;5050304;28;20017;-58
2021/12/22 03:17:49;;;;;;;32.10;17.10;;;;;;;;;;5068478;28;20033;-58
2021/12/22 03:20:16;;;;;;;33.70;17.17;;;;;;;;;;5067964;28;20676;-57
2021/12/22 03:22:45;;;;;;;32.30;17.20;;;;;;;;;;5068578;28;20043;-57
2021/12/22 03:25:16;;;;;;;33.45;17.65;;;;;;;;;;5068088;28;20020;-58
2021/12/22 03:27:47;;;;;;;35.38;17.45;;;;;;;;;;5069012;28;20048;-57
2021/12/22 03:30:14;;;;;;;34.42;17.13;;;;;;;;;;5066435;28;20040;-57
2021/12/22 03:32:40;;;;;;;37.45;18.25;;;;;;;;;;5067974;28;20111;-57
2021/12/22 03:35:07;;;;;;;34.30;17.73;;;;;;;;;;5049793;28;20078;-57
2021/12/22 03:37:33;;;;;;;33.63;17.52;;;;;;;;;;5067957;28;20029;-57
2021/12/22 03:40:00;;;;;;;34.35;16.90;;;;;;;;;;5067294;28;20458;-57
2021/12/22 03:42:26;;;;;;;32.78;17.00;;;;;;;;;;5066429;28;20036;-57
2021/12/22 03:44:52;;;;;;;32.72;17.13;;;;;;;;;;5067895;28;20029;-57
2021/12/22 03:47:20;;;;;;;32.33;15.85;;;;;;;;;;5049411;28;20445;-57
2021/12/22 03:49:46;;;;;;;32.70;16.75;;;;;;;;;;5068002;28;20033;-57
2021/12/22 03:52:12;;;;;;;30.67;15.93;;;;;;;;;;5066383;28;20020;-57
2021/12/22 03:54:38;;;;;;;32.42;16.10;;;;;;;;;;5067686;28;20074;-57
2021/12/22 03:57:04;;;;;;;31.95;15.50;;;;;;;;;;5067673;28;20031;-57
2021/12/22 03:59:30;;;;;;;31.27;15.65;;;;;;;;;;5067306;28;20445;-57
2021/12/22 04:01:56;;;;;;;27.95;15.20;;;;;;;;;;5066697;28;20115;-57
2021/12/22 04:04:23;;;;;;;29.95;16.27;;;;;;;;;;5066977;28;20028;-57
2021/12/22 04:06:50;;;;;;;30.83;15.93;;;;;;;;;;5067476;28;20052;-57
2021/12/22 04:09:17;;;;;;;31.63;16.25;;;;;;;;;;5066856;28;20045;-56
2021/12/22 04:11:43;;;;;;;28.02;15.82;;;;;;;;;;5049242;28;20510;-56
2021/12/22 04:14:10;;;;;;;27.48;15.35;;;;;;;;;;5067287;28;20059;-56
2021/12/22 04:16:36;;;;;;;27.00;14.73;;;;;;;;;;5067029;28;20024;-56
2021/12/22 04:19:03;;;;;;;29.40;16.83;;;;;;;;;;5066978;28;20028;-56
2021/12/22 04:21:30;;;;;;;28.30;14.95;;;;;;;;;;5066024;28;20028;-56
2021/12/22 04:23:56;;;;;;;28.52;15.40;;;;;;;;;;5067226;28;20025;-56
2021/12/22 04:26:23;;;;;;;28.52;14.80;;;;;;;;;;5066368;28;20033;-55
2021/12/22 04:28:49;;;;;;;26.85;13.80;;;;;;;;;;5065435;28;20413;-56
2021/12/22 04:31:15;;;;;;;27.60;14.57;;;;;;;;;;5065915;28;20039;-56
2021/12/22 04:33:41;;;;;;;27.63;14.57;;;;;;;;;;5066659;28;20423;-56
2021/12/22 04:36:08;;;;;;;26.63;14.55;;;;;;;;;;5066848;28;20127;-55
2021/12/22 04:38:34;;;;;;;23.55;14.07;;;;;;;;;;5066667;28;20116;-56
2021/12/22 04:41:00;;;;;;;24.00;13.27;;;;;;;;;;5066116;28;20170;-55
2021/12/22 04:43:26;;;;;;;26.45;14.02;;;;;;;;;;5066334;28;20059;-56
2021/12/22 04:45:52;;;;;;;30.92;16.13;;;;;;;;;;5066832;28;20380;-55
2021/12/22 04:48:18;;;;;;;27.15;15.00;;;;;;;;;;5066190;28;20039;-56
2021/12/22 04:50:44;;;;;;;28.75;15.35;;;;;;;;;;5065467;28;20043;-56
2021/12/22 04:53:20;;;;;;;27.10;14.82;;;;;;;;;;5066513;28;20392;-57
2021/12/22 04:55:47;;;;;;;28.58;15.15;;;;;;;;;;5067347;28;20063;-56
2021/12/22 04:58:13;;;;;;;26.13;14.45;;;;;;;;;;5066946;28;20080;-56
2021/12/22 05:00:40;;;;;;;24.05;13.65;;;;;;;;;;5065837;28;20028;-55
2021/12/22 05:03:06;;;;;;;23.23;13.00;;;;;;;;;;5051402;28;20021;-56
2021/12/22 05:05:32;;;;;;;24.20;12.68;;;;;;;;;;5066058;28;20036;-56
2021/12/22 05:07:58;;;;;;;23.50;13.38;;;;;;;;;;5066439;28;20056;-56
2021/12/22 05:10:26;;;;;;;24.13;12.82;;;;;;;;;;5065965;28;20025;-55
2021/12/22 05:12:52;;;;;;;21.65;12.35;;;;;;;;;;5063748;28;20024;-55
2021/12/22 05:15:23;;;;;;;21.95;13.05;;;;;;;;;;5066110;28;20387;-56
2021/12/22 05:20:22;;;;;;;28.73;15.77;;;;;;;;;;5065884;28;20050;-54
2021/12/22 05:22:48;;;;;;;27.45;14.75;;;;;;;;;;5065358;28;20036;-58
2021/12/22 05:25:15;;;;;;;31.90;17.02;;;;;;;;;;5066594;28;20040;-56
2021/12/22 05:27:41;;;;;;;36.38;18.50;;;;;;;;;;5066214;28;20054;-56
2021/12/22 05:30:08;;;;;;;45.85;22.38;;;;;;;;;;5065705;28;20036;-56
2021/12/22 05:32:36;;;;;;;48.70;22.50;;;;;;;;;;5064681;28;20025;-56
2021/12/22 05:35:03;;;;;;;39.80;19.20;;;;;;;;;;5066201;28;20498;-56
2021/12/22 05:37:29;;;;;;;41.22;20.27;;;;;;;;;;5068143;28;20043;-56
2021/12/22 05:39:58;;;;;;;39.47;19.88;;;;;;;;;;5071468;28;20051;-56
2021/12/22 05:42:25;;;;;;;33.78;17.80;;;;;;;;;;5072489;28;20398;-56
2021/12/22 05:44:51;;;;;;;31.88;16.77;;;;;;;;;;5072748;28;20028;-56
2021/12/22 05:47:17;;;;;;;33.55;18.92;;;;;;;;;;5072567;28;20025;-56
2021/12/22 05:49:44;;;;;;;44.13;22.80;;;;;;;;;;5072398;28;20044;-56
2021/12/22 05:52:10;;;;;;;43.15;22.50;;;;;;;;;;5072505;28;20487;-57
2021/12/22 05:54:36;;;;;;;40.90;21.75;;;;;;;;;;5072377;28;20058;-56
2021/12/22 05:57:02;;;;;;;36.75;20.13;;;;;;;;;;5072807;28;20021;-56
2021/12/22 05:59:28;;;;;;;36.60;18.20;;;;;;;;;;5071276;28;20031;-56
2021/12/22 06:01:54;;;;;;;32.78;17.20;;;;;;;;;;5072230;28;20778;-57
2021/12/22 06:04:20;;;;;;;26.55;15.25;;;;;;;;;;5072212;28;20403;-56
2021/12/22 06:06:47;;;;;;;28.80;15.93;;;;;;;;;;5073148;28;20633;-56
2021/12/22 06:09:13;;;;;;;28.83;15.02;;;;;;;;;;5072570;28;20704;-56
2021/12/22 06:11:39;;;;;;;25.02;13.52;;;;;;;;;;5071169;28;20479;-56
2021/12/22 06:14:05;;;;;;;26.23;14.52;;;;;;;;;;5071975;28;20035;-56
2021/12/22 06:16:31;;;;;;;28.20;14.95;;;;;;;;;;5071603;28;20013;-56
2021/12/22 06:19:01;;;;;;;26.23;13.85;;;;;;;;;;5072461;28;20032;-56
2021/12/22 06:21:29;;;;;;;21.85;12.65;;;;;;;;;;5071509;28;20020;-56
2021/12/22 06:23:55;;;;;;;20.55;12.15;;;;;;;;;;5072416;28;20036;-56
2021/12/22 06:26:21;;;;;;;23.77;13.13;;;;;;;;;;5071215;28;20032;-57
2021/12/22 06:28:47;;;;;;;22.67;13.20;;;;;;;;;;5072374;28;20032;-56
2021/12/22 06:31:13;;;;;;;22.80;12.57;;;;;;;;;;5071964;28;20493;-56
2021/12/22 06:33:40;;;;;;;23.95;13.27;;;;;;;;;;5072363;28;20064;-56
2021/12/22 06:36:06;;;;;;;24.33;13.48;;;;;;;;;;5071182;28;20039;-56
2021/12/22 06:38:33;;;;;;;21.75;12.20;;;;;;;;;;5070300;28;20048;-56
2021/12/22 06:40:59;;;;;;;23.25;13.75;;;;;;;;;;5072148;28;20070;-56
2021/12/22 06:43:25;;;;;;;23.50;13.52;;;;;;;;;;5071962;28;20403;-56
2021/12/22 06:45:51;;;;;;;23.15;13.00;;;;;;;;;;5071832;28;20036;-56
2021/12/22 06:48:18;;;;;;;24.00;13.88;;;;;;;;;;5070014;28;20028;-57
2021/12/22 06:50:44;;;;;;;26.25;13.93;;;;;;;;;;5069473;28;20078;-57
2021/12/22 06:53:10;;;;;;;25.77;14.00;;;;;;;;;;5068828;28;20021;-57
2021/12/22 06:55:36;;;;;;;26.08;13.98;;;;;;;;;;5066455;28;20511;-57
2021/12/22 06:58:02;;;;;;;23.67;12.95;;;;;;;;;;5067752;28;20036;-57
2021/12/22 07:00:29;;;;;;;24.90;13.98;;;;;;;;;;5066834;28;20036;-56
2021/12/22 07:02:56;;;;;;;25.05;13.85;;;;;;;;;;5068540;28;20032;-56
2021/12/22 07:05:23;;;;;;;23.85;12.80;;;;;;;;;;5049860;28;20039;-57
2021/12/22 07:07:49;;;;;;;22.30;12.60;;;;;;;;;;5064574;28;20399;-56
2021/12/22 07:10:15;;;;;;;25.40;14.05;;;;;;;;;;5066608;28;20270;-57
2021/12/22 07:12:42;;;;;;;23.45;13.65;;;;;;;;;;5074252;28;20518;-56
2021/12/22 07:15:10;;;;;;;28.02;15.82;;;;;;;;;;5067038;28;20025;-56
2021/12/22 07:17:39;;;;;;;24.80;14.38;;;;;;;;;;5063073;28;20032;-56
2021/12/22 07:20:05;;;;;;;22.88;12.48;;;;;;;;;;5080710;28;20024;-56
2021/12/22 07:22:32;;;;;;;25.52;14.82;;;;;;;;;;5068494;28;20028;-57
2021/12/22 07:24:58;;;;;;;28.40;15.38;;;;;;;;;;5068496;28;20032;-57
2021/12/22 07:27:24;;;;;;;26.40;14.18;;;;;;;;;;5067123;28;20442;-57
2021/12/22 07:29:50;;;;;;;25.55;13.68;;;;;;;;;;5066636;28;20024;-56
2021/12/22 07:32:16;;;;;;;26.45;13.43;;;;;;;;;;5067835;28;20055;-57
2021/12/22 07:34:47;;;;;;;23.77;13.00;;;;;;;;;;5063727;28;20028;-57
2021/12/22 07:37:22;;;;;;;21.75;12.32;;;;;;;;;;5076356;28;20111;-57
2021/12/22 07:39:48;;;;;;;27.10;14.02;;;;;;;;;;5075293;28;20039;-57
2021/12/22 07:42:14;;;;;;;25.45;13.73;;;;;;;;;;5048089;28;20040;-57
2021/12/22 07:44:41;;;;;;;27.63;15.10;;;;;;;;;;5067981;28;20103;-57
2021/12/22 07:47:07;;;;;;;27.40;15.93;;;;;;;;;;5067694;28;20136;-57
2021/12/22 07:49:34;;;;;;;28.50;15.88;;;;;;;;;;5067463;28;20035;-57
2021/12/22 07:52:01;;;;;;;28.77;16.27;;;;;;;;;;5067017;28;20028;-57
2021/12/22 07:54:27;;;;;;;29.77;17.27;;;;;;;;;;5067373;28;20033;-57
2021/12/22 07:56:53;;;;;;;29.73;17.40;;;;;;;;;;5067929;28;20034;-56
2021/12/22 07:59:19;;;;;;;27.88;15.80;;;;;;;;;;5067560;28;20465;-57
2021/12/22 08:01:46;;;;;;;30.67;16.60;;;;;;;;;;5066896;28;20103;-57
2021/12/22 08:04:12;;;;;;;28.27;15.80;;;;;;;;;;5067487;28;20051;-57
2021/12/22 08:06:38;;;;;;;33.10;17.67;;;;;;;;;;5067742;28;20040;-56
2021/12/22 08:09:04;;;;;;;26.92;16.05;;;;;;;;;;5067449;28;20097;-57
2021/12/22 08:11:30;;;;;;;27.25;15.85;;;;;;;;;;5066795;28;20029;-56
2021/12/22 08:13:57;;;;;;;32.47;17.42;;;;;;;;;;5063386;28;20062;-57
2021/12/22 08:16:23;;;;;;;29.83;15.50;;;;;;;;;;5068152;28;20027;-57
2021/12/22 08:18:49;;;;;;;26.42;15.07;;;;;;;;;;5068668;28;20059;-57
2021/12/22 08:21:15;;;;;;;25.58;14.65;;;;;;;;;;5077562;28;20737;-57
2021/12/22 08:23:42;;;;;;;26.33;14.93;;;;;;;;;;5070357;28;20138;-57
2021/12/22 08:26:08;;;;;;;26.77;14.77;;;;;;;;;;5067885;28;20549;-57
2021/12/22 08:28:34;;;;;;;25.73;15.25;;;;;;;;;;5073868;28;20020;-57
2021/12/22 08:31:00;;;;;;;26.35;14.77;;;;;;;;;;5087824;28;20097;-57
2021/12/22 08:33:29;;;;;;;26.45;14.90;;;;;;;;;;5088552;28;20066;-57
2021/12/22 08:38:51;;;;;;;33.35;18.77;;;;;;;;;;5088613;28;20113;-57
2021/12/22 08:41:22;;;;;;;35.63;19.13;;;;;;;;;;5077843;28;20037;-57
2021/12/22 08:43:48;;;;;;;36.95;20.15;;;;;;;;;;5068506;28;20040;-56
2021/12/22 08:46:14;;;;;;;37.47;20.00;;;;;;;;;;5068037;28;20052;-56
2021/12/22 08:48:40;;;;;;;35.95;18.95;;;;;;;;;;5068483;28;20495;-57
2021/12/22 08:51:06;;;;;;;35.25;17.95;;;;;;;;;;5067735;28;20381;-57
2021/12/22 08:53:32;;;;;;;37.35;18.52;;;;;;;;;;5066250;28;20039;-57
2021/12/22 08:55:58;;;;;;;36.20;18.38;;;;;;;;;;5066253;28;20102;-56
2021/12/22 08:58:24;;;;;;;40.15;20.27;;;;;;;;;;5064068;28;20075;-56
2021/12/22 09:00:50;;;;;;;36.75;19.35;;;;;;;;;;5081387;28;20121;-57
2021/12/22 09:03:16;;;;;;;35.33;19.02;;;;;;;;;;5072088;28;20036;-57
2021/12/22 09:05:42;;;;;;;36.10;18.73;;;;;;;;;;5064631;28;20042;-57
2021/12/22 09:08:08;;;;;;;37.92;18.92;;;;;;;;;;5065303;28;20064;-57
2021/12/22 09:10:34;;;;;;;33.42;17.27;;;;;;;;;;5064126;28;20502;-57
2021/12/22 09:13:02;;;;;;;34.60;18.70;;;;;;;;;;5064083;28;20029;-55
2021/12/22 09:15:28;;;;;;;34.33;18.58;;;;;;;;;;5064245;28;20032;-55
2021/12/22 09:17:54;;;;;;;38.28;20.13;;;;;;;;;;5062660;28;20032;-56
2021/12/22 09:20:21;;;;;;;33.45;18.00;;;;;;;;;;5065301;28;20028;-56
2021/12/22 09:22:47;;;;;;;32.35;17.63;;;;;;;;;;5064507;28;20036;-57
2021/12/22 09:25:13;;;;;;;34.78;18.05;;;;;;;;;;5064484;28;20033;-56
2021/12/22 09:27:39;;;;;;;37.38;19.38;;;;;;;;;;5062745;28;20024;-56
2021/12/22 09:30:06;;;;;;;34.20;18.60;;;;;;;;;;5064363;28;20032;-56
2021/12/22 09:32:32;;;;;;;35.97;18.65;;;;;;;;;;5084921;28;20020;-56
2021/12/22 09:34:58;;;;;;;34.72;18.58;;;;;;;;;;5070637;28;20060;-55
2021/12/22 09:37:24;;;;;;;37.47;19.65;;;;;;;;;;5084172;28;20028;-56
2021/12/22 09:39:50;;;;;;;30.50;17.60;;;;;;;;;;5084831;28;20587;-56
2021/12/22 09:42:17;;;;;;;32.20;17.92;;;;;;;;;;5085721;28;20040;-55
2021/12/22 09:44:45;;;;;;;33.10;17.33;;;;;;;;;;5085249;28;20059;-55
2021/12/22 09:47:14;;;;;;;29.88;16.20;;;;;;;;;;5085460;28;20024;-55
2021/12/22 09:52:19;;;;;;;32.00;16.98;;;;;;;;;;5064598;28;20064;-56
2021/12/22 09:54:56;;;;;;;31.75;16.83;;;;;;;;;;5065206;28;20036;-54
2021/12/22 09:57:24;;;;;;;30.85;16.40;;;;;;;;;;5064751;28;20025;-56
2021/12/22 09:59:52;;;;;;;32.35;17.45;;;;;;;;;;5065077;28;20078;-57
2021/12/22 10:02:19;;;;;;;30.88;16.23;;;;;;;;;;5064820;28;20028;-55
2021/12/22 10:04:46;;;;;;;29.13;16.23;;;;;;;;;;5064906;28;20454;-57
2021/12/22 10:07:19;;;;;;;31.90;16.75;;;;;;;;;;5065127;28;20063;-54
2021/12/22 10:09:46;;;;;;;29.58;15.90;;;;;;;;;;5064902;28;20033;-55
2021/12/22 10:12:20;;;;;;;29.98;16.25;;;;;;;;;;5065073;28;20028;-56
2021/12/22 10:14:56;;;;;;;26.52;14.75;;;;;;;;;;5064926;28;20037;-56
2021/12/22 10:17:31;;;;;;;26.88;15.25;;;;;;;;;;5064715;28;20020;-55
2021/12/22 10:19:59;;;;;;;30.58;15.27;;;;;;;;;;5064514;28;20035;-56
2021/12/22 10:22:36;;;;;;;31.73;16.10;;;;;;;;;;5064502;28;20102;-56
2021/12/22 10:25:28;;;;;;;32.22;17.90;;;;;;;;;;5068543;28;20032;-56
2021/12/22 10:28:18;;;;;;;30.77;16.38;;;;;;;;;;5062680;28;20036;-56
2021/12/22 10:30:44;;;;;;;32.08;17.95;;;;;;;;;;5067451;28;20040;-56
2021/12/22 10:33:14;;;;;;;31.40;17.48;;;;;;;;;;5068373;28;20594;-56
2021/12/22 10:35:43;;;;;;;31.30;17.08;;;;;;;;;;5068077;28;20526;-56
2021/12/22 10:38:10;;;;;;;34.25;17.75;;;;;;;;;;5068723;28;20028;-57
2021/12/22 10:40:47;;;;;;;34.25;17.70;;;;;;;;;;5068522;28;20025;-57
2021/12/22 10:43:32;;;;;;;30.33;16.60;;;;;;;;;;5068073;28;20529;-57
2021/12/22 10:46:01;;;;;;;33.00;16.92;;;;;;;;;;5068405;28;20533;-56
2021/12/22 10:51:30;;;;;;;31.27;16.75;;;;;;;;;;5068103;28;20035;-57
2021/12/22 10:53:57;;;;;;;34.50;16.88;;;;;;;;;;5071303;28;20043;-57
2021/12/22 10:56:27;;;;;;;29.90;15.80;;;;;;;;;;5088763;28;20059;-57
2021/12/22 10:59:20;;;;;;;41.30;21.17;;;;;;;;;;5067767;28;20323;-57
2021/12/22 11:01:57;;;;;;;39.65;19.45;;;;;;;;;;5064043;28;20055;-57
2021/12/22 11:04:27;;;;;;;35.50;18.38;;;;;;;;;;5067302;28;20034;-57
2021/12/22 11:06:56;;;;;;;36.25;18.27;;;;;;;;;;5067870;28;20071;-58
2021/12/22 11:09:23;;;;;;;35.33;18.80;;;;;;;;;;5067731;28;20069;-58
2021/12/22 11:11:50;;;;;;;32.55;17.50;;;;;;;;;;5067539;28;20502;-58
2021/12/22 11:14:19;;;;;;;31.27;16.88;;;;;;;;;;5067030;28;20044;-58
2021/12/22 11:16:54;;;;;;;32.33;16.52;;;;;;;;;;5067299;28;20108;-58
2021/12/22 11:19:20;;;;;;;33.53;17.13;;;;;;;;;;5065233;28;20543;-58
2021/12/22 11:24:35;;;;;;;30.23;17.08;;;;;;;;;;5071962;28;20142;-58
2021/12/22 11:27:01;;;;;;;31.08;16.10;;;;;;;;;;5049564;28;20083;-58
2021/12/22 11:29:28;;;;;;;31.73;16.73;;;;;;;;;;5059242;28;20074;-58
2021/12/22 11:31:54;;;;;;;30.02;16.77;;;;;;;;;;5054920;28;20605;-58
2021/12/22 11:34:21;;;;;;;29.40;15.88;;;;;;;;;;5069882;28;20411;-59
2021/12/22 11:36:49;;;;;;;31.95;17.00;;;;;;;;;;5068078;28;20035;-59
2021/12/22 11:39:15;;;;;;;31.73;16.77;;;;;;;;;;5064668;28;20032;-59
2021/12/22 11:41:54;;;;;;;29.52;16.50;;;;;;;;;;5068378;28;20496;-58
2021/12/22 11:44:22;;;;;;;28.13;15.98;;;;;;;;;;5067680;28;20028;-59
2021/12/22 11:46:48;;;;;;;30.90;17.02;;;;;;;;;;5067282;28;20025;-59
2021/12/22 11:49:18;;;;;;;34.03;18.00;;;;;;;;;;5068061;28;20116;-59
2021/12/22 11:51:45;;;;;;;26.60;15.00;;;;;;;;;;5067913;28;20068;-60
2021/12/22 11:54:12;;;;;;;31.05;16.30;;;;;;;;;;5068769;28;20074;-59
2021/12/22 11:56:40;;;;;;;32.13;16.48;;;;;;;;;;5067210;28;20024;-59
2021/12/22 11:59:07;;;;;;;29.00;16.33;;;;;;;;;;5066361;28;20115;-60
2021/12/22 12:01:33;;;;;;;29.20;16.23;;;;;;;;;;5068011;28;20055;-60
2021/12/22 12:04:12;;;;;;;27.75;15.82;;;;;;;;;;5067711;28;20037;-60
2021/12/22 12:06:52;;;;;;;28.65;15.52;;;;;;;;;;5066247;28;20029;-60
2021/12/22 12:09:22;;;;;;;30.45;17.05;;;;;;;;;;5067878;28;20024;-59
2021/12/22 12:11:55;;;;;;;32.45;17.60;;;;;;;;;;5068861;28;20032;-60
2021/12/22 12:23:17;;;;;;;30.48;16.52;;;;;;;;;;5066500;28;20043;-59
2021/12/22 12:25:43;;;;;;;32.92;17.15;;;;;;;;;;5066358;28;20033;-59
2021/12/22 12:28:19;;;;;;;30.27;16.75;;;;;;;;;;5066746;28;20414;-59
2021/12/22 12:30:46;;;;;;;32.33;16.58;;;;;;;;;;5046196;28;20036;-59
2021/12/22 12:33:21;;;;;;;35.90;17.35;;;;;;;;;;5065950;28;20550;-59
2021/12/22 12:36:07;;;;;;;32.15;16.17;;;;;;;;;;5066348;28;20119;-59
2021/12/22 12:38:52;;;;;;;30.55;16.92;;;;;;;;;;5065622;28;20098;-58
2021/12/22 12:41:18;;;;;;;30.20;16.30;;;;;;;;;;5065527;28;20063;-59
2021/12/22 12:43:45;;;;;;;29.70;16.38;;;;;;;;;;5065838;28;20028;-58
2021/12/22 12:46:20;;;;;;;28.60;16.08;;;;;;;;;;5065554;28;20039;-58
2021/12/22 12:48:46;;;;;;;30.13;16.70;;;;;;;;;;5065647;28;20033;-58
2021/12/22 12:51:13;;;;;;;33.92;17.95;;;;;;;;;;5063882;28;20086;-58
2021/12/22 12:53:45;;;;;;;33.53;17.13;;;;;;;;;;5067036;28;20058;-58
2021/12/22 12:56:12;;;;;;;31.80;16.85;;;;;;;;;;5055739;28;20416;-58
2021/12/22 12:58:58;;;;;;;27.90;16.13;;;;;;;;;;5051247;28;20058;-58
2021/12/22 13:01:43;;;;;;;24.58;13.98;;;;;;;;;;5045546;28;20036;-57
2021/12/22 13:04:23;;;;;;;24.75;14.48;;;;;;;;;;5046193;28;20061;-57
2021/12/22 13:07:01;;;;;;;25.42;14.05;;;;;;;;;;5050864;28;20029;-57
2021/12/22 13:09:31;;;;;;;22.27;13.25;;;;;;;;;;5065067;28;20035;-57
2021/12/22 13:12:10;;;;;;;26.52;14.68;;;;;;;;;;5065127;28;20036;-57
2021/12/22 13:17:22;;;;;;;26.40;14.35;;;;;;;;;;5064040;28;20098;-57
2021/12/22 13:19:53;;;;;;;27.45;15.88;;;;;;;;;;5047487;28;20029;-57
2021/12/22 13:22:21;;;;;;;28.17;15.07;;;;;;;;;;5065203;28;20024;-56
2021/12/22 13:24:47;;;;;;;33.00;17.40;;;;;;;;;;5064087;28;20060;-57
2021/12/22 13:27:25;;;;;;;30.40;16.45;;;;;;;;;;5058334;28;20614;-57
2021/12/22 13:30:10;;;;;;;31.45;17.40;;;;;;;;;;5063418;28;20036;-56
2021/12/22 13:32:36;;;;;;;33.85;17.73;;;;;;;;;;5062269;28;20029;-57
2021/12/22 13:35:03;;;;;;;32.78;17.67;;;;;;;;;;5065170;28;20403;-56
2021/12/22 13:37:30;;;;;;;31.52;17.33;;;;;;;;;;5063245;28;20487;-57
2021/12/22 13:39:56;;;;;;;30.77;17.83;;;;;;;;;;5063205;28;20028;-56
2021/12/22 13:42:23;;;;;;;33.92;19.40;;;;;;;;;;5064656;28;20562;-56
2021/12/22 13:44:49;;;;;;;32.45;17.77;;;;;;;;;;5064719;28;20541;-56
2021/12/22 13:47:16;;;;;;;33.17;18.35;;;;;;;;;;5064179;28;20029;-55
2021/12/22 13:49:42;;;;;;;32.83;17.88;;;;;;;;;;5063423;28;20025;-56
2021/12/22 13:52:08;;;;;;;33.40;18.05;;;;;;;;;;5063170;28;20106;-57
2021/12/22 13:54:34;;;;;;;28.70;17.20;;;;;;;;;;5045138;28;20024;-57
2021/12/22 13:57:05;;;;;;;33.13;18.17;;;;;;;;;;5050613;28;20028;-56
2021/12/22 13:59:36;;;;;;;36.28;19.27;;;;;;;;;;5048016;28;20021;-57
2021/12/22 14:02:04;;;;;;;33.28;18.50;;;;;;;;;;5060663;28;20035;-57
2021/12/22 14:04:31;;;;;;;37.13;20.08;;;;;;;;;;5068732;28;20028;-56
2021/12/22 14:07:20;;;;;;;33.80;19.20;;;;;;;;;;5068941;28;20035;-57
2021/12/22 14:09:49;;;;;;;35.22;19.02;;;;;;;;;;5067746;28;20020;-57
2021/12/22 14:12:21;;;;;;;36.50;20.17;;;;;;;;;;5068379;28;20031;-56
2021/12/22 14:14:47;;;;;;;35.58;18.70;;;;;;;;;;5067841;28;20036;-57
2021/12/22 14:17:18;;;;;;;37.25;18.80;;;;;;;;;;5067296;28;20086;-57
2021/12/22 14:19:50;;;;;;;34.83;19.92;;;;;;;;;;5071625;28;20549;-57
2021/12/22 14:22:17;;;;;;;37.05;20.05;;;;;;;;;;5067673;28;20108;-57
2021/12/22 14:25:00;;;;;;;33.55;17.83;;;;;;;;;;5067626;28;20092;-58
2021/12/22 14:27:39;;;;;;;32.45;18.20;;;;;;;;;;5066619;28;20062;-57
2021/12/22 14:30:08;;;;;;;32.47;19.25;;;;;;;;;;5066935;28;20028;-57
2021/12/22 14:32:36;;;;;;;33.00;19.60;;;;;;;;;;5069119;28;20044;-57
2021/12/22 14:35:03;;;;;;;34.45;20.08;;;;;;;;;;5065404;28;20020;-58
2021/12/22 14:37:31;;;;;;;35.03;20.15;;;;;;;;;;5065960;28;20055;-58
2021/12/22 14:39:58;;;;;;;35.75;19.67;;;;;;;;;;5068503;28;20032;-57
2021/12/22 14:42:31;;;;;;;31.00;17.92;;;;;;;;;;5067036;28;20484;-58
2021/12/22 14:45:17;;;;;;;32.63;19.45;;;;;;;;;;5083437;28;20040;-58
2021/12/22 14:47:43;;;;;;;32.60;18.90;;;;;;;;;;5078508;28;20028;-58
2021/12/22 14:50:13;;;;;;;33.28;19.40;;;;;;;;;;5067109;28;20024;-58
2021/12/22 14:52:54;;;;;;;33.60;19.92;;;;;;;;;;5048703;28;20060;-58
2021/12/22 14:55:33;;;;;;;36.08;21.27;;;;;;;;;;5055877;28;20028;-58
2021/12/22 14:58:00;;;;;;;39.55;21.40;;;;;;;;;;5066383;28;20047;-58
2021/12/22 15:00:26;;;;;;;36.70;21.67;;;;;;;;;;5066962;28;20036;-58
2021/12/22 15:02:52;;;;;;;36.33;20.45;;;;;;;;;;5065130;28;20036;-58
2021/12/22 15:05:18;;;;;;;36.88;21.27;;;;;;;;;;5067588;28;20028;-58